createdAt,value
2022-12-23T00:02:21.036Z,2.42
2022-12-23T00:05:26.012Z,2.43
2022-12-23T00:08:29.405Z,2.46
2022-12-23T00:11:34.445Z,2.45
2022-12-23T00:14:57.510Z,2.43
2022-12-23T00:18:00.977Z,2.45
2022-12-23T00:21:09.232Z,2.47
2022-12-23T00:24:12.884Z,2.47
2022-12-23T00:27:16.036Z,2.48
2022-12-23T00:30:21.746Z,2.48
2022-12-23T00:33:27.918Z,2.48
2022-12-23T00:36:31.507Z,2.48
2022-12-23T00:39:55.226Z,2.48
2022-12-23T00:43:01.400Z,2.50
2022-12-23T00:46:06.206Z,2.48
2022-12-23T00:49:32.113Z,2.48
2022-12-23T00:52:35.363Z,2.49
2022-12-23T00:55:38.991Z,2.46
2022-12-23T00:58:42.457Z,2.47
2022-12-23T01:02:04.491Z,2.48
2022-12-23T01:05:29.775Z,2.47
2022-12-23T01:08:33.684Z,2.49
2022-12-23T01:11:37.302Z,2.48
2022-12-23T01:14:40.850Z,2.46
2022-12-23T01:17:44.053Z,2.49
2022-12-23T01:20:48.442Z,2.48
2022-12-23T01:23:51.624Z,2.46
2022-12-23T01:26:55.412Z,2.46
2022-12-23T01:29:58.494Z,2.46
2022-12-23T01:33:02.091Z,2.46
2022-12-23T01:36:08.154Z,2.46
2022-12-23T01:39:13.043Z,2.47
2022-12-23T01:42:38.501Z,2.46
2022-12-23T01:45:42.172Z,2.44
2022-12-23T01:48:51.650Z,2.44
2022-12-23T01:51:55.100Z,2.43
2022-12-23T01:54:58.304Z,2.44
2022-12-23T01:58:10.691Z,2.44
2022-12-23T02:01:32.596Z,2.46
2022-12-23T02:04:36.330Z,2.46
2022-12-23T02:07:59.532Z,2.48
2022-12-23T02:11:28.375Z,2.47
2022-12-23T02:15:17.642Z,2.50
2022-12-23T02:18:33.014Z,2.48
2022-12-23T02:22:02.100Z,2.47
2022-12-23T02:25:16.227Z,2.48
2022-12-23T02:28:28.093Z,2.49
2022-12-23T02:31:43.751Z,2.51
2022-12-23T02:34:53.370Z,2.52
2022-12-23T02:38:07.957Z,2.53
2022-12-23T02:41:17.027Z,2.54
2022-12-23T02:44:46.240Z,2.54
2022-12-23T02:47:56.804Z,2.53
2022-12-23T02:51:02.464Z,2.56
2022-12-23T02:54:11.732Z,2.58
2022-12-23T02:57:19.855Z,2.59
2022-12-23T03:00:24.023Z,2.57
2022-12-23T03:03:28.803Z,2.57
2022-12-23T03:06:36.116Z,2.56
2022-12-23T03:09:50.998Z,2.54
2022-12-23T03:13:15.757Z,2.50
2022-12-23T03:16:37.863Z,2.48
2022-12-23T03:20:02.042Z,2.42
2022-12-23T03:23:23.362Z,2.43
2022-12-23T03:26:36.639Z,2.43
2022-12-23T03:29:46.345Z,2.45
2022-12-23T03:33:14.292Z,2.46
2022-12-23T03:36:24.779Z,2.48
2022-12-23T03:39:33.611Z,2.46
2022-12-23T03:42:41.561Z,2.49
2022-12-23T03:45:51.117Z,2.49
2022-12-23T03:49:01.726Z,2.53
2022-12-23T03:52:21.851Z,2.54
2022-12-23T03:55:30.753Z,2.55
2022-12-23T03:58:48.482Z,2.57
2022-12-23T04:01:54.940Z,2.59
2022-12-23T04:05:15.749Z,2.62
2022-12-23T04:08:37.572Z,2.60
2022-12-23T04:11:41.327Z,2.65
2022-12-23T04:14:49.398Z,2.66
2022-12-23T04:17:55.883Z,2.70
2022-12-23T04:21:01.280Z,2.71
2022-12-23T04:24:05.036Z,2.70
2022-12-23T04:27:11.041Z,2.73
2022-12-23T04:30:15.085Z,2.76
2022-12-23T04:33:18.432Z,2.77
2022-12-23T04:36:21.910Z,2.78
2022-12-23T04:39:25.106Z,2.79
2022-12-23T04:42:28.634Z,2.82
2022-12-23T04:45:33.064Z,2.88
2022-12-23T04:48:39.730Z,2.92
2022-12-23T04:51:43.100Z,2.95
2022-12-23T04:54:49.775Z,3.00
2022-12-23T04:57:53.001Z,3.05
2022-12-23T05:01:02.635Z,3.08
2022-12-23T05:04:06.047Z,3.07
2022-12-23T05:07:09.761Z,3.10
2022-12-23T05:10:13.021Z,3.12
2022-12-23T05:13:17.259Z,3.12
2022-12-23T05:16:21.886Z,3.13
2022-12-23T05:19:25.506Z,3.10
2022-12-23T05:22:28.889Z,3.16
2022-12-23T05:25:38.600Z,3.16
2022-12-23T05:28:46.774Z,3.14
2022-12-23T05:31:52.218Z,3.11
2022-12-23T05:34:56.053Z,3.09
2022-12-23T05:37:59.648Z,3.08
2022-12-23T05:41:03.352Z,3.06
2022-12-23T05:44:09.476Z,3.07
2022-12-23T05:47:12.600Z,3.05
2022-12-23T05:50:16.115Z,3.02
2022-12-23T05:53:22.021Z,3.04
2022-12-23T05:56:25.460Z,3.02
2022-12-23T05:59:31.642Z,3.04
2022-12-23T06:02:37.412Z,3.04
2022-12-23T06:05:43.630Z,3.03
2022-12-23T06:08:46.876Z,3.03
2022-12-23T06:11:50.573Z,3.04
2022-12-23T06:14:54.126Z,3.03
2022-12-23T06:17:57.461Z,3.02
2022-12-23T06:21:02.367Z,3.03
2022-12-23T06:24:06.319Z,3.03
2022-12-23T06:27:09.589Z,3.05
2022-12-23T06:30:14.523Z,3.03
2022-12-23T06:33:18.524Z,3.04
2022-12-23T06:36:22.283Z,3.04
2022-12-23T06:39:26.021Z,3.07
2022-12-23T06:42:29.589Z,3.06
2022-12-23T06:45:34.337Z,3.04
2022-12-23T06:48:37.928Z,3.04
2022-12-23T06:51:42.128Z,3.03
2022-12-23T06:54:46.895Z,3.04
2022-12-23T06:57:50.022Z,3.04
2022-12-23T07:00:54.148Z,3.04
2022-12-23T07:03:57.703Z,3.07
2022-12-23T07:07:01.345Z,3.06
2022-12-23T07:10:05.550Z,3.07
2022-12-23T07:13:11.924Z,3.08
2022-12-23T07:16:15.456Z,3.08
2022-12-23T07:19:18.995Z,3.07
2022-12-23T07:22:22.736Z,3.09
2022-12-23T07:25:26.504Z,3.10
2022-12-23T07:28:29.705Z,3.07
2022-12-23T07:31:33.717Z,3.11
2022-12-23T07:34:37.162Z,3.10
2022-12-23T07:37:40.711Z,3.11
2022-12-23T07:40:49.185Z,3.10
2022-12-23T07:43:52.908Z,3.13
2022-12-23T07:46:56.307Z,3.19
2022-12-23T07:49:59.766Z,3.16
2022-12-23T07:53:03.125Z,3.19
2022-12-23T07:56:06.591Z,3.16
2022-12-23T07:59:09.869Z,3.14
2022-12-23T08:02:15.857Z,3.16
2022-12-23T08:05:19.849Z,3.22
2022-12-23T08:08:23.171Z,3.22
2022-12-23T08:11:28.358Z,3.21
2022-12-23T08:14:31.507Z,3.22
2022-12-23T08:17:35.085Z,3.28
2022-12-23T08:20:38.541Z,3.20
2022-12-23T08:23:43.695Z,3.19
2022-12-23T08:26:47.079Z,3.16
2022-12-23T08:29:50.490Z,3.23
2022-12-23T08:32:53.766Z,3.35
2022-12-23T08:35:59.305Z,3.32
2022-12-23T08:39:06.606Z,3.32
2022-12-23T08:42:10.217Z,3.26
2022-12-23T08:45:13.419Z,3.28
2022-12-23T08:48:18.736Z,3.17
2022-12-23T08:51:23.817Z,3.15
2022-12-23T08:54:28.586Z,3.16
2022-12-23T08:57:31.912Z,3.14
2022-12-23T09:00:37.226Z,3.18
2022-12-23T09:03:43.025Z,3.29
2022-12-23T09:06:47.801Z,3.36
2022-12-23T09:09:51.005Z,3.43
2022-12-23T09:12:57.718Z,3.53
2022-12-23T09:16:01.625Z,3.60
2022-12-23T09:19:05.265Z,3.53
2022-12-23T09:22:09.514Z,3.45
2022-12-23T09:25:15.810Z,3.24
2022-12-23T09:28:19.002Z,3.16
2022-12-23T09:31:23.843Z,3.13
2022-12-23T09:34:27.157Z,3.19
2022-12-23T09:37:30.571Z,3.18
2022-12-23T09:40:36.795Z,3.16
2022-12-23T09:44:02.417Z,3.22
2022-12-23T09:47:11.910Z,3.23
2022-12-23T09:50:24.202Z,3.22
2022-12-23T09:53:44.583Z,3.22
2022-12-23T09:56:56.573Z,3.28
2022-12-23T10:00:13.367Z,3.39
2022-12-23T10:03:34.808Z,3.23
2022-12-23T10:06:40.258Z,3.22
2022-12-23T10:09:46.513Z,3.32
2022-12-23T10:12:53.059Z,3.25
2022-12-23T10:16:03.587Z,3.22
2022-12-23T10:19:20.975Z,3.20
2022-12-23T10:22:32.469Z,3.16
2022-12-23T10:25:46.591Z,3.18
2022-12-23T10:28:59.058Z,3.17
2022-12-23T10:32:17.348Z,3.23
2022-12-23T10:35:42.777Z,3.19
2022-12-23T10:39:04.719Z,3.20
2022-12-23T10:42:55.735Z,3.28
2022-12-23T10:46:17.486Z,3.23
2022-12-23T10:49:42.533Z,3.18
2022-12-23T10:52:49.378Z,3.24
2022-12-23T10:55:53.085Z,3.28
2022-12-23T10:59:00.998Z,3.26
2022-12-23T11:02:14.604Z,3.31
2022-12-23T11:05:27.116Z,3.29
2022-12-23T11:08:32.683Z,3.35
2022-12-23T11:12:00.114Z,3.38
2022-12-23T11:15:04.460Z,3.46
2022-12-23T11:18:18.865Z,3.46
2022-12-23T11:21:22.795Z,3.43
2022-12-23T11:24:38.003Z,3.36
2022-12-23T11:27:46.105Z,3.42
2022-12-23T11:30:56.497Z,3.39
2022-12-23T11:34:14.750Z,3.37
2022-12-23T11:37:41.836Z,3.40
2022-12-23T11:40:48.123Z,3.39
2022-12-23T11:44:26.984Z,3.40
2022-12-23T11:47:39.327Z,3.45
2022-12-23T11:51:00.025Z,3.52
2022-12-23T11:54:04.047Z,3.58
2022-12-23T11:57:18.024Z,3.59
2022-12-23T12:00:41.523Z,3.65
2022-12-23T12:03:49.921Z,3.71
2022-12-23T12:07:23.775Z,3.80
2022-12-23T12:10:35.358Z,3.83
2022-12-23T12:13:43.645Z,3.79
2022-12-23T12:17:19.163Z,3.75
2022-12-23T12:20:37.114Z,3.79
2022-12-23T12:27:58.582Z,3.84
2022-12-23T12:31:49.334Z,3.83
2022-12-23T12:35:00.473Z,3.91
2022-12-23T12:38:16.577Z,3.94
2022-12-23T12:41:28.464Z,3.91
2022-12-23T12:44:40.592Z,3.87
2022-12-23T12:48:24.237Z,3.90
2022-12-23T12:51:42.954Z,3.89
2022-12-23T12:54:59.601Z,3.80
2022-12-23T12:58:04.293Z,3.87
2022-12-23T13:01:28.200Z,3.88
2022-12-23T13:04:45.894Z,3.87
2022-12-23T13:08:13.981Z,3.87
2022-12-23T13:11:48.622Z,3.88
2022-12-23T13:15:10.618Z,3.91
2022-12-23T13:18:51.560Z,3.89
2022-12-23T13:22:03.608Z,3.91
2022-12-23T13:25:16.439Z,3.94
2022-12-23T13:28:44.560Z,3.90
2022-12-23T13:32:03.162Z,3.98
2022-12-23T13:35:32.287Z,3.89
2022-12-23T13:39:03.871Z,3.86
2022-12-23T13:42:14.018Z,3.84
2022-12-23T13:45:20.457Z,3.79
2022-12-23T13:48:35.953Z,3.80
2022-12-23T13:52:06.336Z,3.80
2022-12-23T13:55:12.346Z,3.83
2022-12-23T13:58:24.972Z,3.85
2022-12-23T14:01:42.856Z,3.87
2022-12-23T14:05:00.028Z,3.88
2022-12-23T14:08:19.923Z,3.90
2022-12-23T14:11:32.288Z,3.92
2022-12-23T14:14:36.078Z,3.96
2022-12-23T14:18:04.496Z,3.96
2022-12-23T14:21:12.197Z,3.95
2022-12-23T14:24:27.607Z,3.95
2022-12-23T14:28:10.390Z,3.93
2022-12-23T14:31:46.304Z,3.93
2022-12-23T14:35:17.198Z,3.88
2022-12-23T14:38:31.095Z,3.85
2022-12-23T14:41:55.613Z,3.83
2022-12-23T14:45:41.821Z,3.79
2022-12-23T14:48:45.259Z,3.77
2022-12-23T14:51:51.151Z,3.74
2022-12-23T14:55:28.431Z,3.73
2022-12-23T14:58:18.779Z,3.71
2022-12-23T15:01:41.199Z,3.67
2022-12-23T15:04:55.117Z,3.68
2022-12-23T15:07:58.524Z,3.67
2022-12-23T15:11:03.425Z,3.64
2022-12-23T15:14:16.734Z,3.66
2022-12-23T15:17:35.811Z,3.64
2022-12-23T15:20:41.456Z,3.64
2022-12-23T15:23:50.694Z,3.62
2022-12-23T15:27:24.749Z,3.59
2022-12-23T15:30:18.356Z,3.61
2022-12-23T15:34:03.440Z,3.59
2022-12-23T15:36:56.043Z,3.59
2022-12-23T15:40:09.419Z,3.59
2022-12-23T15:43:22.488Z,3.55
2022-12-23T15:46:30.124Z,3.56
2022-12-23T15:49:34.397Z,3.53
2022-12-23T15:52:41.455Z,3.55
2022-12-23T15:55:49.101Z,3.56
2022-12-23T15:58:54.772Z,3.59
2022-12-23T16:01:58.886Z,3.59
2022-12-23T16:05:05.602Z,3.58
2022-12-23T16:08:12.048Z,3.57
2022-12-23T16:11:18.979Z,3.57
2022-12-23T16:14:35.829Z,3.56
2022-12-23T16:17:39.298Z,3.56
2022-12-23T16:20:56.252Z,3.56
2022-12-23T16:24:02.538Z,3.56
2022-12-23T16:27:05.772Z,3.58
2022-12-23T16:30:18.154Z,3.61
2022-12-23T16:33:43.294Z,3.62
2022-12-23T16:36:46.902Z,3.61
2022-12-23T16:39:50.033Z,3.61
2022-12-23T16:42:53.743Z,3.63
2022-12-23T16:45:58.064Z,3.63
2022-12-23T16:49:05.419Z,3.59
2022-12-23T16:52:14.824Z,3.59
2022-12-23T16:55:20.389Z,3.58
2022-12-23T16:58:23.961Z,3.54
2022-12-23T17:01:35.604Z,3.52
2022-12-23T17:04:38.923Z,3.50
2022-12-23T17:07:45.384Z,3.51
2022-12-23T17:10:50.433Z,3.49
2022-12-23T17:13:59.721Z,3.47
2022-12-23T17:17:16.819Z,3.45
2022-12-23T17:20:22.033Z,3.45
2022-12-23T17:23:25.441Z,3.46
2022-12-23T17:26:30.936Z,3.46
2022-12-23T17:29:36.724Z,3.47
2022-12-23T17:32:42.179Z,3.47
2022-12-23T17:35:45.415Z,3.48
2022-12-23T17:38:51.073Z,3.50
2022-12-23T17:41:58.326Z,3.50
2022-12-23T17:45:02.168Z,3.45
2022-12-23T17:48:07.007Z,3.48
2022-12-23T17:51:17.640Z,3.46
2022-12-23T17:54:25.206Z,3.46
2022-12-23T17:57:28.667Z,3.45
2022-12-23T18:00:38.261Z,3.47
2022-12-23T18:03:41.769Z,3.50
2022-12-23T18:06:45.051Z,3.50
2022-12-23T18:09:52.424Z,3.48
2022-12-23T18:12:58.311Z,3.46
2022-12-23T18:16:02.516Z,3.46
2022-12-23T18:19:15.601Z,3.45
2022-12-23T18:22:22.221Z,3.46
2022-12-23T18:25:27.540Z,3.45
2022-12-23T18:28:31.367Z,3.44
2022-12-23T18:31:37.172Z,3.45
2022-12-23T18:34:40.879Z,3.44
2022-12-23T18:37:44.047Z,3.39
2022-12-23T18:40:49.830Z,3.34
2022-12-23T18:43:57.686Z,3.30
2022-12-23T18:47:03.264Z,3.31
2022-12-23T18:50:07.337Z,3.27
2022-12-23T18:53:23.690Z,3.29
2022-12-23T18:56:27.272Z,3.26
2022-12-23T18:59:33.083Z,3.23
2022-12-23T19:02:38.697Z,3.24
2022-12-23T19:05:42.569Z,3.22
2022-12-23T19:08:45.935Z,3.19
2022-12-23T19:11:51.260Z,3.16
2022-12-23T19:14:54.477Z,3.16
2022-12-23T19:18:00.089Z,3.18
2022-12-23T19:21:09.537Z,3.17
2022-12-23T19:24:13.775Z,3.18
2022-12-23T19:27:17.036Z,3.19
2022-12-23T19:30:21.372Z,3.20
2022-12-23T19:33:24.665Z,3.17
2022-12-23T19:36:28.393Z,3.15
2022-12-23T19:39:34.018Z,3.14
2022-12-23T19:42:39.362Z,3.16
2022-12-23T19:45:43.699Z,3.14
2022-12-23T19:48:53.651Z,3.15
2022-12-23T19:51:57.010Z,3.16
2022-12-23T19:55:00.899Z,3.14
2022-12-23T19:58:04.457Z,3.16
2022-12-23T20:01:17.715Z,3.16
2022-12-23T20:04:25.170Z,3.19
2022-12-23T20:07:28.540Z,3.19
2022-12-23T20:10:37.046Z,3.20
2022-12-23T20:13:46.110Z,3.19
2022-12-23T20:16:49.875Z,3.22
2022-12-23T20:19:53.498Z,3.19
2022-12-23T20:22:59.971Z,3.21
2022-12-23T20:26:04.472Z,3.22
2022-12-23T20:29:08.930Z,3.22
2022-12-23T20:32:13.384Z,3.23
2022-12-23T20:35:17.248Z,3.20
2022-12-23T20:38:22.185Z,3.23
2022-12-23T20:41:28.883Z,3.24
2022-12-23T20:44:36.649Z,3.24
2022-12-23T20:47:41.100Z,3.24
2022-12-23T20:50:51.103Z,3.23
2022-12-23T20:53:56.278Z,3.22
2022-12-23T20:56:59.546Z,3.23
2022-12-23T21:00:06.085Z,3.24
2022-12-23T21:03:10.807Z,3.22
2022-12-23T21:06:14.777Z,3.21
2022-12-23T21:09:18.221Z,3.15
2022-12-23T21:12:21.863Z,3.13
2022-12-23T21:15:27.426Z,3.14
2022-12-23T21:18:32.342Z,3.12
2022-12-23T21:21:38.009Z,3.12
2022-12-23T21:24:41.542Z,3.14
2022-12-23T21:27:45.526Z,3.07
2022-12-23T21:30:52.428Z,3.10
2022-12-23T21:33:58.545Z,3.06
2022-12-23T21:37:02.739Z,3.11
2022-12-23T21:40:08.894Z,3.12
2022-12-23T21:43:13.621Z,3.11
2022-12-23T21:46:23.251Z,3.11
2022-12-23T21:49:29.637Z,3.11
2022-12-23T21:52:32.928Z,3.14
2022-12-23T21:55:36.414Z,3.12
2022-12-23T21:58:40.309Z,3.13
2022-12-23T22:01:44.165Z,3.13
2022-12-23T22:04:47.665Z,3.14
2022-12-23T22:07:51.309Z,3.14
2022-12-23T22:10:55.954Z,3.11
2022-12-23T22:14:02.092Z,3.10
2022-12-23T22:17:05.620Z,3.06
2022-12-23T22:20:09.619Z,3.07
2022-12-23T22:23:14.942Z,3.05
2022-12-23T22:26:25.659Z,3.02
2022-12-23T22:29:29.952Z,2.98
2022-12-23T22:32:42.148Z,2.92
2022-12-23T22:35:55.466Z,2.87
2022-12-23T22:39:01.017Z,2.89
2022-12-23T22:42:04.910Z,2.91
2022-12-23T22:45:09.962Z,2.93
2022-12-23T22:48:13.845Z,2.93
2022-12-23T22:51:26.277Z,2.95
2022-12-23T22:54:29.812Z,2.95
2022-12-23T22:57:33.348Z,2.99
2022-12-23T23:00:39.001Z,3.00
2022-12-23T23:03:43.689Z,3.01
2022-12-23T23:06:50.718Z,2.99
2022-12-23T23:09:55.178Z,3.01
2022-12-23T23:12:58.933Z,2.99
2022-12-23T23:16:06.591Z,2.98
2022-12-23T23:19:12.425Z,2.99
2022-12-23T23:22:17.666Z,3.01
2022-12-23T23:25:27.232Z,3.02
2022-12-23T23:28:31.014Z,3.05
2022-12-23T23:31:43.662Z,3.07
2022-12-23T23:34:47.500Z,3.07
2022-12-23T23:37:51.054Z,3.07
2022-12-23T23:40:56.511Z,3.08
2022-12-23T23:44:00.055Z,3.08
2022-12-23T23:47:03.280Z,3.09
2022-12-23T23:50:08.317Z,3.07
2022-12-23T23:53:13.807Z,3.11
2022-12-23T23:56:23.728Z,3.09
2022-12-23T23:59:29.036Z,3.10
